sensor_id;sensor_type;location;lat;lon;timestamp;pressure;altitude;pressure_sealevel;temperature;humidity
69127;BME280;56688;50.234;19.292;2023-05-10T00:00:21;98779.31;;;5.07;68.49
69127;BME280;56688;50.234;19.292;2023-05-10T00:02:50;98780.48;;;4.94;68.23
69127;BME280;56688;50.234;19.292;2023-05-10T00:05:18;98776.02;;;4.84;68.82
69127;BME280;56688;50.234;19.292;2023-05-10T00:07:45;98776.09;;;4.77;69.14
69127;BME280;56688;50.234;19.292;2023-05-10T00:10:12;98775.26;;;4.73;69.12
69127;BME280;56688;50.234;19.292;2023-05-10T00:12:39;98775.48;;;4.67;69.47
69127;BME280;56688;50.234;19.292;2023-05-10T00:15:06;98775.94;;;4.62;69.53
69127;BME280;56688;50.234;19.292;2023-05-10T00:17:34;98777.38;;;4.56;69.32
69127;BME280;56688;50.234;19.292;2023-05-10T00:20:01;98771.48;;;4.47;69.48
69127;BME280;56688;50.234;19.292;2023-05-10T00:22:28;98768.17;;;4.37;69.75
69127;BME280;56688;50.234;19.292;2023-05-10T00:24:55;98771.75;;;4.27;69.77
69127;BME280;56688;50.234;19.292;2023-05-10T00:27:22;98771.59;;;4.17;69.98
69127;BME280;56688;50.234;19.292;2023-05-10T00:29:48;98768.95;;;4.08;70.37
69127;BME280;56688;50.234;19.292;2023-05-10T00:32:15;98766.13;;;4.01;70.82
69127;BME280;56688;50.234;19.292;2023-05-10T00:34:43;98757.70;;;3.91;70.90
69127;BME280;56688;50.234;19.292;2023-05-10T00:37:11;98761.70;;;3.93;71.23
69127;BME280;56688;50.234;19.292;2023-05-10T00:39:37;98763.96;;;3.87;71.32
69127;BME280;56688;50.234;19.292;2023-05-10T00:42:04;98762.95;;;3.81;71.46
69127;BME280;56688;50.234;19.292;2023-05-10T00:44:32;98759.42;;;3.79;71.65
69127;BME280;56688;50.234;19.292;2023-05-10T00:46:59;98758.04;;;3.73;71.43
69127;BME280;56688;50.234;19.292;2023-05-10T00:49:26;98758.65;;;3.67;71.51
69127;BME280;56688;50.234;19.292;2023-05-10T00:51:53;98757.11;;;3.58;71.44
69127;BME280;56688;50.234;19.292;2023-05-10T00:54:20;98759.02;;;3.51;71.81
69127;BME280;56688;50.234;19.292;2023-05-10T00:56:47;98758.00;;;3.44;72.06
69127;BME280;56688;50.234;19.292;2023-05-10T00:59:16;98758.70;;;3.38;72.09
69127;BME280;56688;50.234;19.292;2023-05-10T01:01:45;98751.54;;;3.32;72.31
69127;BME280;56688;50.234;19.292;2023-05-10T01:04:13;98756.85;;;3.33;72.61
69127;BME280;56688;50.234;19.292;2023-05-10T01:06:41;98752.11;;;3.31;72.67
69127;BME280;56688;50.234;19.292;2023-05-10T01:09:09;98748.50;;;3.28;72.61
69127;BME280;56688;50.234;19.292;2023-05-10T01:11:38;98749.81;;;3.24;72.39
69127;BME280;56688;50.234;19.292;2023-05-10T01:14:06;98749.31;;;3.19;72.47
69127;BME280;56688;50.234;19.292;2023-05-10T01:16:37;98749.30;;;3.14;72.66
69127;BME280;56688;50.234;19.292;2023-05-10T01:19:12;98747.77;;;3.07;72.78
69127;BME280;56688;50.234;19.292;2023-05-10T01:21:52;98731.90;;;2.89;72.84
69127;BME280;56688;50.234;19.292;2023-05-10T01:35:41;98740.30;;;2.78;73.75
69127;BME280;56688;50.234;19.292;2023-05-10T01:43:33;98735.02;;;2.65;74.04
69127;BME280;56688;50.234;19.292;2023-05-10T01:46:14;98737.15;;;2.61;73.99
69127;BME280;56688;50.234;19.292;2023-05-10T01:48:48;98735.55;;;2.57;74.47
69127;BME280;56688;50.234;19.292;2023-05-10T01:51:23;98729.21;;;2.54;74.61
69127;BME280;56688;50.234;19.292;2023-05-10T01:53:51;98728.48;;;2.54;75.09
69127;BME280;56688;50.234;19.292;2023-05-10T01:56:24;98727.94;;;2.56;75.02
69127;BME280;56688;50.234;19.292;2023-05-10T01:58:53;98727.46;;;2.55;75.21
69127;BME280;56688;50.234;19.292;2023-05-10T02:01:21;98723.61;;;2.53;75.70
69127;BME280;56688;50.234;19.292;2023-05-10T02:03:50;98722.55;;;2.55;75.72
69127;BME280;56688;50.234;19.292;2023-05-10T02:06:20;98717.29;;;2.53;75.32
69127;BME280;56688;50.234;19.292;2023-05-10T02:08:49;98716.83;;;2.50;75.72
69127;BME280;56688;50.234;19.292;2023-05-10T02:11:18;98716.14;;;2.48;75.40
69127;BME280;56688;50.234;19.292;2023-05-10T02:13:49;98713.71;;;2.46;75.13
69127;BME280;56688;50.234;19.292;2023-05-10T02:16:18;98713.23;;;2.41;75.04
69127;BME280;56688;50.234;19.292;2023-05-10T02:18:48;98715.85;;;2.41;74.98
69127;BME280;56688;50.234;19.292;2023-05-10T02:21:16;98711.77;;;2.42;75.15
69127;BME280;56688;50.234;19.292;2023-05-10T02:23:44;98711.44;;;2.41;75.15
69127;BME280;56688;50.234;19.292;2023-05-10T02:26:12;98704.02;;;2.40;75.08
69127;BME280;56688;50.234;19.292;2023-05-10T02:28:42;98708.11;;;2.37;75.22
69127;BME280;56688;50.234;19.292;2023-05-10T02:31:10;98705.93;;;2.32;75.41
69127;BME280;56688;50.234;19.292;2023-05-10T02:33:39;98708.14;;;2.29;75.13
69127;BME280;56688;50.234;19.292;2023-05-10T02:36:08;98707.36;;;2.21;75.15
69127;BME280;56688;50.234;19.292;2023-05-10T02:38:36;98707.27;;;2.20;75.35
69127;BME280;56688;50.234;19.292;2023-05-10T02:41:04;98707.33;;;2.21;75.65
69127;BME280;56688;50.234;19.292;2023-05-10T02:43:33;98708.08;;;2.23;75.64
69127;BME280;56688;50.234;19.292;2023-05-10T02:46:00;98709.02;;;2.22;75.22
69127;BME280;56688;50.234;19.292;2023-05-10T02:48:28;98708.04;;;2.17;75.26
69127;BME280;56688;50.234;19.292;2023-05-10T02:51:00;98710.89;;;2.17;75.32
69127;BME280;56688;50.234;19.292;2023-05-10T02:53:31;98711.28;;;2.14;75.47
69127;BME280;56688;50.234;19.292;2023-05-10T02:56:01;98710.25;;;2.12;75.81
69127;BME280;56688;50.234;19.292;2023-05-10T02:58:30;98708.42;;;2.07;75.58
69127;BME280;56688;50.234;19.292;2023-05-10T03:00:57;98708.36;;;2.03;75.65
69127;BME280;56688;50.234;19.292;2023-05-10T03:03:24;98711.98;;;2.00;75.39
69127;BME280;56688;50.234;19.292;2023-05-10T03:05:53;98706.83;;;1.96;76.04
69127;BME280;56688;50.234;19.292;2023-05-10T03:08:23;98710.40;;;1.95;76.16
69127;BME280;56688;50.234;19.292;2023-05-10T03:10:59;98712.98;;;1.97;76.04
69127;BME280;56688;50.234;19.292;2023-05-10T03:13:38;98713.87;;;2.01;76.09
69127;BME280;56688;50.234;19.292;2023-05-10T03:16:09;98713.27;;;2.04;76.14
69127;BME280;56688;50.234;19.292;2023-05-10T03:18:48;98711.61;;;2.04;76.21
69127;BME280;56688;50.234;19.292;2023-05-10T03:21:18;98712.17;;;2.06;76.16
69127;BME280;56688;50.234;19.292;2023-05-10T03:23:50;98706.17;;;2.04;76.15
69127;BME280;56688;50.234;19.292;2023-05-10T03:26:20;98709.53;;;2.02;76.29
69127;BME280;56688;50.234;19.292;2023-05-10T03:28:52;98708.70;;;1.99;76.70
69127;BME280;56688;50.234;19.292;2023-05-10T03:31:20;98708.52;;;2.01;76.59
69127;BME280;56688;50.234;19.292;2023-05-10T03:33:48;98706.64;;;2.05;76.64
69127;BME280;56688;50.234;19.292;2023-05-10T03:36:18;98703.38;;;2.08;76.69
69127;BME280;56688;50.234;19.292;2023-05-10T03:38:45;98704.05;;;2.15;76.76
69127;BME280;56688;50.234;19.292;2023-05-10T03:41:13;98705.61;;;2.21;77.01
69127;BME280;56688;50.234;19.292;2023-05-10T03:43:40;98702.52;;;2.27;76.82
69127;BME280;56688;50.234;19.292;2023-05-10T03:46:07;98699.57;;;2.32;77.03
69127;BME280;56688;50.234;19.292;2023-05-10T03:48:34;98701.05;;;2.37;76.82
69127;BME280;56688;50.234;19.292;2023-05-10T03:51:01;98696.05;;;2.40;77.05
69127;BME280;56688;50.234;19.292;2023-05-10T03:53:29;98691.00;;;2.46;77.19
69127;BME280;56688;50.234;19.292;2023-05-10T03:55:56;98689.92;;;2.55;77.10
69127;BME280;56688;50.234;19.292;2023-05-10T03:58:23;98689.55;;;2.61;77.11
69127;BME280;56688;50.234;19.292;2023-05-10T04:00:51;98694.66;;;2.72;77.15
69127;BME280;56688;50.234;19.292;2023-05-10T04:03:19;98695.77;;;2.86;77.02
69127;BME280;56688;50.234;19.292;2023-05-10T04:05:46;98696.48;;;2.96;76.59
69127;BME280;56688;50.234;19.292;2023-05-10T04:08:14;98695.40;;;3.06;76.83
69127;BME280;56688;50.234;19.292;2023-05-10T04:10:42;98694.01;;;3.16;76.89
69127;BME280;56688;50.234;19.292;2023-05-10T04:13:10;98690.45;;;3.24;76.66
69127;BME280;56688;50.234;19.292;2023-05-10T04:15:37;98697.42;;;3.34;76.66
69127;BME280;56688;50.234;19.292;2023-05-10T04:18:04;98696.30;;;3.45;76.80
69127;BME280;56688;50.234;19.292;2023-05-10T04:20:34;98696.46;;;3.59;76.61
69127;BME280;56688;50.234;19.292;2023-05-10T04:23:01;98698.57;;;3.74;76.53
69127;BME280;56688;50.234;19.292;2023-05-10T04:25:27;98697.77;;;3.91;76.39
69127;BME280;56688;50.234;19.292;2023-05-10T04:27:54;98697.13;;;4.09;76.36
69127;BME280;56688;50.234;19.292;2023-05-10T04:30:21;98696.33;;;4.27;75.99
69127;BME280;56688;50.234;19.292;2023-05-10T04:32:48;98699.77;;;4.46;75.94
69127;BME280;56688;50.234;19.292;2023-05-10T04:35:15;98685.63;;;4.62;75.61
69127;BME280;56688;50.234;19.292;2023-05-10T04:37:42;98697.20;;;4.94;75.41
69127;BME280;56688;50.234;19.292;2023-05-10T04:40:10;98698.92;;;5.32;75.68
69127;BME280;56688;50.234;19.292;2023-05-10T04:42:39;98697.63;;;5.81;75.37
69127;BME280;56688;50.234;19.292;2023-05-10T04:45:07;98694.45;;;6.40;73.98
69127;BME280;56688;50.234;19.292;2023-05-10T04:47:36;98692.52;;;7.05;71.45
69127;BME280;56688;50.234;19.292;2023-05-10T04:50:06;98692.41;;;7.66;68.86
69127;BME280;56688;50.234;19.292;2023-05-10T04:52:33;98692.37;;;8.21;66.44
69127;BME280;56688;50.234;19.292;2023-05-10T04:55:00;98691.30;;;8.74;63.71
69127;BME280;56688;50.234;19.292;2023-05-10T04:57:27;98693.40;;;9.35;62.51
69127;BME280;56688;50.234;19.292;2023-05-10T04:59:54;98687.65;;;10.02;60.56
69127;BME280;56688;50.234;19.292;2023-05-10T05:02:21;98681.83;;;10.72;58.23
69127;BME280;56688;50.234;19.292;2023-05-10T05:04:48;98678.41;;;11.30;55.79
69127;BME280;56688;50.234;19.292;2023-05-10T05:07:15;98678.48;;;11.71;54.24
69127;BME280;56688;50.234;19.292;2023-05-10T05:09:42;98675.85;;;12.05;52.70
69127;BME280;56688;50.234;19.292;2023-05-10T05:12:09;98673.31;;;12.33;51.52
69127;BME280;56688;50.234;19.292;2023-05-10T05:14:41;98667.34;;;12.52;51.06
69127;BME280;56688;50.234;19.292;2023-05-10T05:17:07;98668.67;;;12.68;51.32
69127;BME280;56688;50.234;19.292;2023-05-10T05:19:34;98669.04;;;12.89;51.43
69127;BME280;56688;50.234;19.292;2023-05-10T05:22:02;98667.30;;;13.08;50.49
69127;BME280;56688;50.234;19.292;2023-05-10T05:24:29;98671.02;;;13.26;50.44
69127;BME280;56688;50.234;19.292;2023-05-10T05:26:56;98669.36;;;13.46;49.72
69127;BME280;56688;50.234;19.292;2023-05-10T05:29:22;98666.55;;;13.60;49.48
69127;BME280;56688;50.234;19.292;2023-05-10T05:31:49;98668.43;;;13.77;49.24
69127;BME280;56688;50.234;19.292;2023-05-10T05:34:18;98664.89;;;13.92;48.33
69127;BME280;56688;50.234;19.292;2023-05-10T05:36:47;98659.81;;;14.09;47.69
69127;BME280;56688;50.234;19.292;2023-05-10T05:39:14;98658.57;;;14.23;46.71
69127;BME280;56688;50.234;19.292;2023-05-10T05:41:41;98661.00;;;14.41;46.88
69127;BME280;56688;50.234;19.292;2023-05-10T05:44:08;98654.70;;;14.61;45.97
69127;BME280;56688;50.234;19.292;2023-05-10T05:46:36;98655.11;;;14.92;46.09
69127;BME280;56688;50.234;19.292;2023-05-10T05:49:03;98654.16;;;15.37;45.14
69127;BME280;56688;50.234;19.292;2023-05-10T05:51:30;98657.45;;;15.96;44.51
69127;BME280;56688;50.234;19.292;2023-05-10T05:53:57;98650.85;;;16.51;42.41
69127;BME280;56688;50.234;19.292;2023-05-10T05:56:24;98653.27;;;16.94;41.07
69127;BME280;56688;50.234;19.292;2023-05-10T05:58:51;98651.87;;;17.30;40.42
69127;BME280;56688;50.234;19.292;2023-05-10T06:01:18;98654.14;;;17.68;39.98
69127;BME280;56688;50.234;19.292;2023-05-10T06:03:45;98652.94;;;18.12;38.83
69127;BME280;56688;50.234;19.292;2023-05-10T06:06:12;98655.27;;;18.67;37.91
69127;BME280;56688;50.234;19.292;2023-05-10T06:08:40;98649.05;;;19.28;37.07
69127;BME280;56688;50.234;19.292;2023-05-10T06:11:06;98646.68;;;19.83;34.79
69127;BME280;56688;50.234;19.292;2023-05-10T06:13:33;98652.13;;;20.20;32.86
69127;BME280;56688;50.234;19.292;2023-05-10T06:16:03;98646.94;;;20.48;33.03
69127;BME280;56688;50.234;19.292;2023-05-10T06:18:30;98644.27;;;20.87;31.96
69127;BME280;56688;50.234;19.292;2023-05-10T06:20:56;98644.55;;;21.28;31.92
69127;BME280;56688;50.234;19.292;2023-05-10T06:23:24;98646.61;;;21.61;30.88
69127;BME280;56688;50.234;19.292;2023-05-10T06:25:54;98648.06;;;21.74;30.20
69127;BME280;56688;50.234;19.292;2023-05-10T06:28:21;98648.25;;;21.89;31.12
69127;BME280;56688;50.234;19.292;2023-05-10T06:30:47;98650.70;;;22.32;31.14
69127;BME280;56688;50.234;19.292;2023-05-10T06:33:14;98649.05;;;22.94;29.65
69127;BME280;56688;50.234;19.292;2023-05-10T06:35:42;98644.61;;;23.56;28.72
69127;BME280;56688;50.234;19.292;2023-05-10T06:38:09;98643.28;;;24.07;27.21
69127;BME280;56688;50.234;19.292;2023-05-10T06:40:36;98645.92;;;24.48;26.83
69127;BME280;56688;50.234;19.292;2023-05-10T06:43:03;98641.36;;;24.84;26.15
69127;BME280;56688;50.234;19.292;2023-05-10T06:45:30;98640.98;;;25.22;26.10
69127;BME280;56688;50.234;19.292;2023-05-10T06:47:56;98638.00;;;25.59;25.57
69127;BME280;56688;50.234;19.292;2023-05-10T06:50:24;98635.38;;;25.95;25.70
69127;BME280;56688;50.234;19.292;2023-05-10T06:52:51;98635.20;;;26.30;24.73
69127;BME280;56688;50.234;19.292;2023-05-10T06:55:19;98640.12;;;26.46;24.17
69127;BME280;56688;50.234;19.292;2023-05-10T06:57:46;98635.63;;;26.56;23.38
69127;BME280;56688;50.234;19.292;2023-05-10T07:00:14;98634.73;;;26.60;23.45
69127;BME280;56688;50.234;19.292;2023-05-10T07:02:42;98633.40;;;26.61;22.87
69127;BME280;56688;50.234;19.292;2023-05-10T07:05:09;98633.38;;;26.69;23.02
69127;BME280;56688;50.234;19.292;2023-05-10T07:07:35;98628.94;;;26.78;22.98
69127;BME280;56688;50.234;19.292;2023-05-10T07:10:03;98625.41;;;26.94;23.12
69127;BME280;56688;50.234;19.292;2023-05-10T07:12:30;98624.02;;;27.06;23.06
69127;BME280;56688;50.234;19.292;2023-05-10T07:14:57;98622.48;;;27.20;22.07
69127;BME280;56688;50.234;19.292;2023-05-10T07:17:23;98622.77;;;27.22;21.93
69127;BME280;56688;50.234;19.292;2023-05-10T07:19:51;98621.20;;;27.27;21.73
69127;BME280;56688;50.234;19.292;2023-05-10T07:22:18;98620.52;;;27.28;21.63
69127;BME280;56688;50.234;19.292;2023-05-10T07:24:45;98619.94;;;27.44;21.89
69127;BME280;56688;50.234;19.292;2023-05-10T07:27:12;98618.66;;;27.65;21.72
69127;BME280;56688;50.234;19.292;2023-05-10T07:29:39;98623.09;;;27.71;21.80
69127;BME280;56688;50.234;19.292;2023-05-10T07:32:06;98618.74;;;27.65;22.47
69127;BME280;56688;50.234;19.292;2023-05-10T07:34:33;98618.23;;;27.76;22.41
69127;BME280;56688;50.234;19.292;2023-05-10T07:37:00;98616.86;;;27.93;21.71
69127;BME280;56688;50.234;19.292;2023-05-10T07:39:27;98617.91;;;28.07;22.07
69127;BME280;56688;50.234;19.292;2023-05-10T07:41:55;98615.43;;;28.34;21.44
69127;BME280;56688;50.234;19.292;2023-05-10T07:44:22;98617.04;;;28.37;20.49
69127;BME280;56688;50.234;19.292;2023-05-10T07:46:49;98615.14;;;28.28;21.21
69127;BME280;56688;50.234;19.292;2023-05-10T07:49:16;98617.98;;;28.10;21.48
69127;BME280;56688;50.234;19.292;2023-05-10T07:51:43;98616.83;;;28.19;21.12
69127;BME280;56688;50.234;19.292;2023-05-10T07:54:10;98611.14;;;28.35;20.45
69127;BME280;56688;50.234;19.292;2023-05-10T07:56:37;98615.91;;;28.41;19.73
69127;BME280;56688;50.234;19.292;2023-05-10T07:59:04;98607.91;;;28.27;20.16
69127;BME280;56688;50.234;19.292;2023-05-10T08:01:34;98607.59;;;28.09;20.50
69127;BME280;56688;50.234;19.292;2023-05-10T08:04:01;98604.11;;;28.03;20.22
69127;BME280;56688;50.234;19.292;2023-05-10T08:06:31;98603.98;;;27.98;20.64
69127;BME280;56688;50.234;19.292;2023-05-10T08:08:58;98603.80;;;28.10;21.35
69127;BME280;56688;50.234;19.292;2023-05-10T08:11:25;98606.94;;;28.36;19.57
69127;BME280;56688;50.234;19.292;2023-05-10T08:13:54;98605.73;;;28.35;18.65
69127;BME280;56688;50.234;19.292;2023-05-10T08:16:21;98607.33;;;28.08;20.05
69127;BME280;56688;50.234;19.292;2023-05-10T08:18:48;98602.76;;;27.89;20.17
69127;BME280;56688;50.234;19.292;2023-05-10T08:21:17;98598.85;;;27.51;20.59
69127;BME280;56688;50.234;19.292;2023-05-10T08:23:44;98606.10;;;27.48;20.51
69127;BME280;56688;50.234;19.292;2023-05-10T08:26:11;98601.23;;;27.48;20.82
69127;BME280;56688;50.234;19.292;2023-05-10T08:28:38;98601.11;;;27.60;20.57
69127;BME280;56688;50.234;19.292;2023-05-10T08:31:05;98601.68;;;27.91;20.00
69127;BME280;56688;50.234;19.292;2023-05-10T08:33:32;98602.42;;;27.93;19.78
69127;BME280;56688;50.234;19.292;2023-05-10T08:35:59;98606.58;;;27.88;20.55
69127;BME280;56688;50.234;19.292;2023-05-10T08:38:26;98606.10;;;27.68;20.36
69127;BME280;56688;50.234;19.292;2023-05-10T08:40:54;98608.71;;;27.45;20.17
69127;BME280;56688;50.234;19.292;2023-05-10T08:43:28;98610.27;;;27.19;19.78
69127;BME280;56688;50.234;19.292;2023-05-10T08:45:56;98604.98;;;26.79;20.62
69127;BME280;56688;50.234;19.292;2023-05-10T08:48:28;98609.48;;;26.53;21.71
69127;BME280;56688;50.234;19.292;2023-05-10T08:50:58;98609.41;;;26.74;20.90
69127;BME280;56688;50.234;19.292;2023-05-10T08:53:26;98607.38;;;26.95;20.20
69127;BME280;56688;50.234;19.292;2023-05-10T08:55:53;98604.80;;;27.05;19.98
69127;BME280;56688;50.234;19.292;2023-05-10T08:58:21;98604.53;;;27.17;20.24
69127;BME280;56688;50.234;19.292;2023-05-10T09:00:49;98604.27;;;27.34;19.99
69127;BME280;56688;50.234;19.292;2023-05-10T09:03:18;98605.77;;;27.33;19.18
69127;BME280;56688;50.234;19.292;2023-05-10T09:05:45;98601.33;;;27.36;19.81
69127;BME280;56688;50.234;19.292;2023-05-10T09:08:13;98607.25;;;27.36;19.43
69127;BME280;56688;50.234;19.292;2023-05-10T09:10:41;98603.14;;;27.20;20.72
69127;BME280;56688;50.234;19.292;2023-05-10T09:13:10;98605.83;;;27.05;21.22
69127;BME280;56688;50.234;19.292;2023-05-10T09:15:38;98604.04;;;27.03;20.76
69127;BME280;56688;50.234;19.292;2023-05-10T09:18:05;98600.21;;;27.13;21.32
69127;BME280;56688;50.234;19.292;2023-05-10T09:20:32;98603.92;;;27.30;21.00
69127;BME280;56688;50.234;19.292;2023-05-10T09:22:59;98600.88;;;27.29;20.30
69127;BME280;56688;50.234;19.292;2023-05-10T09:25:26;98598.48;;;27.14;20.73
69127;BME280;56688;50.234;19.292;2023-05-10T09:27:53;98596.08;;;27.05;21.28
69127;BME280;56688;50.234;19.292;2023-05-10T09:30:26;98597.50;;;27.10;21.56
69127;BME280;56688;50.234;19.292;2023-05-10T09:32:55;98594.35;;;27.07;20.88
69127;BME280;56688;50.234;19.292;2023-05-10T09:35:24;98594.44;;;26.93;20.98
69127;BME280;56688;50.234;19.292;2023-05-10T09:37:57;98592.39;;;26.87;21.25
69127;BME280;56688;50.234;19.292;2023-05-10T09:40:26;98592.33;;;26.90;21.03
69127;BME280;56688;50.234;19.292;2023-05-10T09:42:56;98589.12;;;26.89;21.50
69127;BME280;56688;50.234;19.292;2023-05-10T09:45:25;98591.06;;;26.82;21.10
69127;BME280;56688;50.234;19.292;2023-05-10T09:47:53;98590.48;;;26.51;21.42
69127;BME280;56688;50.234;19.292;2023-05-10T09:50:21;98595.39;;;26.10;22.56
69127;BME280;56688;50.234;19.292;2023-05-10T09:55:16;98584.02;;;25.61;23.23
69127;BME280;56688;50.234;19.292;2023-05-10T09:57:44;98586.08;;;25.33;23.13
69127;BME280;56688;50.234;19.292;2023-05-10T10:00:17;98582.56;;;25.13;22.99
69127;BME280;56688;50.234;19.292;2023-05-10T10:02:54;98579.19;;;24.94;23.39
69127;BME280;56688;50.234;19.292;2023-05-10T10:05:28;98581.32;;;24.61;24.01
69127;BME280;56688;50.234;19.292;2023-05-10T10:07:57;98575.96;;;24.20;24.25
69127;BME280;56688;50.234;19.292;2023-05-10T10:10:25;98582.79;;;23.74;24.99
69127;BME280;56688;50.234;19.292;2023-05-10T10:12:53;98578.47;;;23.39;24.03
69127;BME280;56688;50.234;19.292;2023-05-10T10:15:21;98576.04;;;23.22;25.29
69127;BME280;56688;50.234;19.292;2023-05-10T10:17:49;98570.88;;;23.12;25.29
69127;BME280;56688;50.234;19.292;2023-05-10T10:20:18;98562.99;;;23.04;25.02
69127;BME280;56688;50.234;19.292;2023-05-10T10:22:46;98561.23;;;23.14;25.48
69127;BME280;56688;50.234;19.292;2023-05-10T10:25:15;98563.11;;;23.27;25.10
69127;BME280;56688;50.234;19.292;2023-05-10T10:30:43;98554.44;;;23.48;24.76
69127;BME280;56688;50.234;19.292;2023-05-10T10:36:12;98551.38;;;23.21;25.20
69127;BME280;56688;50.234;19.292;2023-05-10T10:41:30;98543.02;;;23.02;25.57
69127;BME280;56688;50.234;19.292;2023-05-10T10:55:18;98530.55;;;22.94;26.39
69127;BME280;56688;50.234;19.292;2023-05-10T11:00:31;98526.53;;;23.00;24.59
69127;BME280;56688;50.234;19.292;2023-05-10T11:05:47;98526.02;;;23.12;25.52
69127;BME280;56688;50.234;19.292;2023-05-10T11:08:31;98525.85;;;23.09;25.33
69127;BME280;56688;50.234;19.292;2023-05-10T11:13:33;98519.31;;;23.16;25.13
69127;BME280;56688;50.234;19.292;2023-05-10T11:18:59;98514.07;;;23.53;25.23
69127;BME280;56688;50.234;19.292;2023-05-10T11:21:29;98508.54;;;23.75;24.60
69127;BME280;56688;50.234;19.292;2023-05-10T11:23:58;98512.15;;;24.10;24.17
69127;BME280;56688;50.234;19.292;2023-05-10T11:26:31;98510.52;;;24.42;23.56
69127;BME280;56688;50.234;19.292;2023-05-10T11:28:59;98503.44;;;24.79;23.97
69127;BME280;56688;50.234;19.292;2023-05-10T11:31:28;98500.88;;;25.12;25.65
69127;BME280;56688;50.234;19.292;2023-05-10T11:33:57;98506.33;;;25.47;24.98
69127;BME280;56688;50.234;19.292;2023-05-10T11:36:27;98503.88;;;25.87;23.31
69127;BME280;56688;50.234;19.292;2023-05-10T11:38:55;98502.89;;;26.22;22.84
69127;BME280;56688;50.234;19.292;2023-05-10T11:41:23;98505.10;;;26.29;22.69
69127;BME280;56688;50.234;19.292;2023-05-10T11:43:52;98504.50;;;26.35;22.19
69127;BME280;56688;50.234;19.292;2023-05-10T11:46:21;98498.66;;;26.32;22.38
69127;BME280;56688;50.234;19.292;2023-05-10T11:48:50;98497.50;;;26.55;23.07
69127;BME280;56688;50.234;19.292;2023-05-10T11:51:22;98488.02;;;26.98;21.59
69127;BME280;56688;50.234;19.292;2023-05-10T11:53:50;98493.80;;;27.39;21.74
69127;BME280;56688;50.234;19.292;2023-05-10T11:56:19;98490.67;;;27.69;21.67
69127;BME280;56688;50.234;19.292;2023-05-10T11:58:53;98489.36;;;28.13;20.75
69127;BME280;56688;50.234;19.292;2023-05-10T12:01:23;98487.45;;;28.62;20.92
69127;BME280;56688;50.234;19.292;2023-05-10T12:03:52;98485.50;;;28.91;20.07
69127;BME280;56688;50.234;19.292;2023-05-10T12:06:21;98480.95;;;29.16;19.83
69127;BME280;56688;50.234;19.292;2023-05-10T12:08:48;98483.77;;;29.46;19.59
69127;BME280;56688;50.234;19.292;2023-05-10T12:11:24;98482.52;;;29.74;19.40
69127;BME280;56688;50.234;19.292;2023-05-10T12:13:54;98484.27;;;29.82;18.98
69127;BME280;56688;50.234;19.292;2023-05-10T12:16:23;98487.98;;;29.77;19.43
69127;BME280;56688;50.234;19.292;2023-05-10T12:18:51;98481.83;;;29.67;19.78
69127;BME280;56688;50.234;19.292;2023-05-10T12:21:20;98489.11;;;29.71;19.67
69127;BME280;56688;50.234;19.292;2023-05-10T12:23:52;98490.60;;;29.75;19.60
69127;BME280;56688;50.234;19.292;2023-05-10T12:26:24;98481.40;;;29.82;20.17
69127;BME280;56688;50.234;19.292;2023-05-10T12:28:53;98479.95;;;30.00;19.52
69127;BME280;56688;50.234;19.292;2023-05-10T12:31:20;98485.87;;;29.80;19.00
69127;BME280;56688;50.234;19.292;2023-05-10T12:33:47;98485.05;;;29.55;19.07
69127;BME280;56688;50.234;19.292;2023-05-10T12:36:16;98483.81;;;29.48;19.22
69127;BME280;56688;50.234;19.292;2023-05-10T12:38:45;98477.57;;;29.42;19.56
69127;BME280;56688;50.234;19.292;2023-05-10T12:41:16;98471.04;;;29.56;19.39
69127;BME280;56688;50.234;19.292;2023-05-10T12:43:44;98476.04;;;29.78;19.77
69127;BME280;56688;50.234;19.292;2023-05-10T12:46:14;98475.04;;;29.79;19.73
69127;BME280;56688;50.234;19.292;2023-05-10T12:48:42;98469.79;;;29.78;19.43
69127;BME280;56688;50.234;19.292;2023-05-10T12:51:09;98464.84;;;29.79;19.41
69127;BME280;56688;50.234;19.292;2023-05-10T12:53:38;98469.89;;;29.71;19.09
69127;BME280;56688;50.234;19.292;2023-05-10T12:56:08;98466.45;;;29.61;18.82
69127;BME280;56688;50.234;19.292;2023-05-10T12:58:35;98466.02;;;29.61;18.44
69127;BME280;56688;50.234;19.292;2023-05-10T13:01:02;98459.32;;;29.53;18.08
69127;BME280;56688;50.234;19.292;2023-05-10T13:03:30;98464.10;;;29.52;19.32
69127;BME280;56688;50.234;19.292;2023-05-10T13:05:57;98459.29;;;29.31;19.16
69127;BME280;56688;50.234;19.292;2023-05-10T13:08:24;98458.25;;;29.13;19.61
69127;BME280;56688;50.234;19.292;2023-05-10T13:10:52;98456.27;;;29.13;20.09
69127;BME280;56688;50.234;19.292;2023-05-10T13:13:18;98456.18;;;29.23;20.48
69127;BME280;56688;50.234;19.292;2023-05-10T13:15:46;98454.98;;;29.34;19.20
69127;BME280;56688;50.234;19.292;2023-05-10T13:18:13;98451.73;;;29.53;19.71
69127;BME280;56688;50.234;19.292;2023-05-10T13:20:40;98456.98;;;29.66;18.62
69127;BME280;56688;50.234;19.292;2023-05-10T13:23:07;98447.84;;;29.61;18.30
69127;BME280;56688;50.234;19.292;2023-05-10T13:25:34;98442.94;;;29.53;18.85
69127;BME280;56688;50.234;19.292;2023-05-10T13:28:02;98437.33;;;29.83;18.63
69127;BME280;56688;50.234;19.292;2023-05-10T13:30:29;98437.23;;;30.26;19.07
69127;BME280;56688;50.234;19.292;2023-05-10T13:32:56;98436.81;;;30.45;18.77
69127;BME280;56688;50.234;19.292;2023-05-10T13:35:23;98435.55;;;30.16;18.81
69127;BME280;56688;50.234;19.292;2023-05-10T13:37:50;98434.83;;;29.85;18.73
69127;BME280;56688;50.234;19.292;2023-05-10T13:40:17;98432.98;;;29.59;18.38
69127;BME280;56688;50.234;19.292;2023-05-10T13:42:44;98428.86;;;29.61;19.22
69127;BME280;56688;50.234;19.292;2023-05-10T13:45:12;98424.29;;;29.77;19.33
69127;BME280;56688;50.234;19.292;2023-05-10T13:47:39;98421.40;;;29.82;17.81